GBG weather

Galesburg Municipal Airport
Galesburg, Illinois, United States

Public forecast

Using degrees Fahrenheit for public forecast. Weather courtesy of forecast.io.

METAR (pilot weather report)

Retrieved 2019/05/27 00:35 UTC (11 minutes ago):

KGBG 270035Z AUTO 00000KT 10SM SCT034 23/17 A3004 RMK AO2 T02310170

TAF (pilot weather forecast)

Forecast is more than 12 hours old.

Closest forecast is Quad City International Airport, 30.8 nm (57.1 km) N. Retrieved 2019/05/26 00:42 UTC (1 day ago):

TAF KMLI 262341Z 2700/2724 VRB05KT P6SM BKN250 FM270900 10007KT P6SM BKN050 FM271400 15013G22KT 4SM -TSRA SCT015 BKN030CB FM271700 19014G24KT P6SM VCTS SCT040CB